createdAt,value
2019-02-20T00:00:42.021Z,6.70
2019-02-20T00:05:47.481Z,6.60
2019-02-20T00:10:52.901Z,6.43
2019-02-20T00:15:58.264Z,6.30
2019-02-20T00:21:03.638Z,5.77
2019-02-20T00:26:09.160Z,5.60
2019-02-20T00:31:14.599Z,6.60
2019-02-20T00:36:20.026Z,5.70
2019-02-20T00:41:25.495Z,4.93
2019-02-20T00:46:39.375Z,5.20
2019-02-20T00:52:06.143Z,5.90
2019-02-20T00:57:11.588Z,5.40
2019-02-20T01:02:17.045Z,5.07
2019-02-20T01:07:22.587Z,5.80
2019-02-20T01:12:27.965Z,5.37
2019-02-20T01:17:33.299Z,5.57
2019-02-20T01:22:38.773Z,5.83
2019-02-20T01:27:44.148Z,5.80
2019-02-20T01:32:49.592Z,5.93
2019-02-20T01:37:55.176Z,5.13
2019-02-20T01:43:00.598Z,5.40
2019-02-20T01:48:06.018Z,5.87
2019-02-20T01:53:11.401Z,5.60
2019-02-20T01:58:16.746Z,6.10
2019-02-20T02:03:22.353Z,5.43
2019-02-20T02:08:27.823Z,5.80
2019-02-20T02:13:33.359Z,5.07
2019-02-20T02:18:38.723Z,5.67
2019-02-20T02:23:44.156Z,5.50
2019-02-20T02:28:49.585Z,6.00
2019-02-20T02:33:54.963Z,5.77
2019-02-20T02:39:00.365Z,5.77
2019-02-20T02:44:05.851Z,5.57
2019-02-20T02:49:11.231Z,5.33
2019-02-20T02:54:16.595Z,5.90
2019-02-20T02:59:22.073Z,5.60
2019-02-20T03:04:27.530Z,6.00
2019-02-20T03:09:32.938Z,6.13
2019-02-20T03:14:38.292Z,6.27
2019-02-20T03:19:43.773Z,5.83
2019-02-20T03:24:49.411Z,6.30
2019-02-20T03:29:54.822Z,5.83
2019-02-20T03:35:00.290Z,5.83
2019-02-20T03:40:06.181Z,6.17
2019-02-20T03:45:11.667Z,6.30
2019-02-20T03:50:17.133Z,6.03
2019-02-20T03:55:22.503Z,6.70
2019-02-20T04:00:27.900Z,6.40
2019-02-20T04:05:33.362Z,6.80
2019-02-20T04:10:38.774Z,5.97
2019-02-20T04:15:44.300Z,6.43
2019-02-20T04:20:49.709Z,6.90
2019-02-20T04:25:55.123Z,6.53
2019-02-20T04:31:00.532Z,7.27
2019-02-20T04:36:05.946Z,6.77
2019-02-20T04:41:11.452Z,6.60
2019-02-20T04:46:16.845Z,6.20
2019-02-20T04:51:22.276Z,6.90
2019-02-20T04:56:27.673Z,7.27
2019-02-20T05:01:33.121Z,6.87
2019-02-20T05:06:38.626Z,6.40
2019-02-20T05:11:44.350Z,6.87
2019-02-20T05:16:49.849Z,6.83
2019-02-20T05:21:55.270Z,6.90
2019-02-20T05:27:00.783Z,6.70
2019-02-20T05:32:06.204Z,7.67
2019-02-20T05:37:11.711Z,6.80
2019-02-20T05:42:17.115Z,7.20
2019-02-20T05:47:22.479Z,7.37
2019-02-20T05:52:28.003Z,7.40
2019-02-20T05:57:33.404Z,7.03
2019-02-20T06:02:38.893Z,8.27
2019-02-20T06:07:44.451Z,8.73
2019-02-20T06:12:49.857Z,7.93
2019-02-20T06:17:55.216Z,8.03
2019-02-20T06:23:00.714Z,8.80
2019-02-20T06:28:06.087Z,8.87
2019-02-20T06:33:11.510Z,9.17
2019-02-20T06:38:16.883Z,9.80
2019-02-20T06:43:22.301Z,9.97
2019-02-20T06:48:27.947Z,9.50
2019-02-20T06:53:33.437Z,9.50
2019-02-20T06:58:38.893Z,10.17
2019-02-20T07:03:44.325Z,10.20
2019-02-20T07:10:00.781Z,11.60
2019-02-20T07:16:11.881Z,10.33
2019-02-20T07:22:27.205Z,12.00
2019-02-20T07:28:27.326Z,11.93
2019-02-20T07:33:32.999Z,11.57
2019-02-20T07:38:38.803Z,13.33
2019-02-20T07:43:44.309Z,13.50
2019-02-20T07:48:49.701Z,13.70
2019-02-20T07:53:55.092Z,12.80
2019-02-20T07:59:00.599Z,14.07
2019-02-20T08:04:06.101Z,13.60
2019-02-20T08:09:11.551Z,13.77
2019-02-20T08:14:17.094Z,12.87
2019-02-20T08:19:22.551Z,12.77
2019-02-20T08:24:27.932Z,13.97
2019-02-20T08:29:33.391Z,14.20
2019-02-20T08:34:38.863Z,14.73
2019-02-20T08:39:44.335Z,13.70
2019-02-20T08:44:49.861Z,15.47
2019-02-20T08:49:55.357Z,16.30
2019-02-20T08:55:00.842Z,16.13
2019-02-20T09:00:07.225Z,16.60
2019-02-20T09:05:12.779Z,18.37
2019-02-20T09:10:18.494Z,18.73
2019-02-20T09:15:23.916Z,17.53
2019-02-20T09:20:29.336Z,19.37
2019-02-20T09:25:41.387Z,18.73
2019-02-20T09:30:41.956Z,18.70
2019-02-20T09:35:47.458Z,19.80
2019-02-20T09:40:52.861Z,20.50
2019-02-20T09:45:58.355Z,20.63
2019-02-20T09:51:03.807Z,23.10
2019-02-20T09:56:09.239Z,20.47
2019-02-20T10:01:14.719Z,20.57
2019-02-20T10:06:20.140Z,22.27
2019-02-20T10:11:25.521Z,21.23
2019-02-20T10:16:32.417Z,19.87
2019-02-20T10:21:37.805Z,19.97
2019-02-20T10:26:43.246Z,19.07
2019-02-20T10:31:49.225Z,16.83
2019-02-20T10:36:54.747Z,17.47
2019-02-20T10:42:00.216Z,16.00
2019-02-20T10:47:05.633Z,12.50
2019-02-20T10:52:11.183Z,14.07
2019-02-20T10:57:16.541Z,12.73
2019-02-20T11:02:21.922Z,13.67
2019-02-20T11:07:27.334Z,11.83
2019-02-20T11:12:32.991Z,11.67
2019-02-20T11:17:38.607Z,11.23
2019-02-20T11:22:44.026Z,10.17
2019-02-20T11:27:49.586Z,10.07
2019-02-20T11:32:55.024Z,8.57
2019-02-20T11:38:00.683Z,10.87
2019-02-20T11:43:06.343Z,12.60
2019-02-20T11:48:11.789Z,10.97
2019-02-20T11:53:17.188Z,10.43
2019-02-20T11:58:22.667Z,9.23
2019-02-20T12:03:29.931Z,9.83
2019-02-20T12:08:35.399Z,8.57
2019-02-20T12:13:40.791Z,7.53
2019-02-20T12:18:46.290Z,8.00
2019-02-20T12:23:51.823Z,6.77
2019-02-20T12:28:57.438Z,5.63
2019-02-20T12:34:03.050Z,6.07
2019-02-20T12:39:08.707Z,4.93
2019-02-20T12:44:14.113Z,5.53
2019-02-20T12:49:19.605Z,6.00
2019-02-20T12:54:24.961Z,4.27
2019-02-20T12:59:30.466Z,4.70
2019-02-20T13:04:36.010Z,5.43
2019-02-20T13:09:41.381Z,5.00
2019-02-20T13:14:46.797Z,5.33
2019-02-20T13:19:52.408Z,5.03
2019-02-20T13:24:58.044Z,4.20
2019-02-20T13:30:03.632Z,5.50
2019-02-20T13:35:09.249Z,4.97
2019-02-20T13:40:14.660Z,5.10
2019-02-20T13:45:20.026Z,4.63
2019-02-20T13:50:25.568Z,5.03
2019-02-20T13:55:34.497Z,4.90
2019-02-20T14:00:37.950Z,4.27
2019-02-20T14:05:43.473Z,4.33
2019-02-20T14:10:49.192Z,4.60
2019-02-20T14:15:56.714Z,4.70
2019-02-20T14:21:02.203Z,4.07
2019-02-20T14:26:07.769Z,3.27
2019-02-20T14:31:13.445Z,4.27
2019-02-20T14:36:19.126Z,4.27
2019-02-20T14:41:24.653Z,4.20
2019-02-20T14:46:30.153Z,3.90
2019-02-20T14:51:35.566Z,5.17
2019-02-20T14:56:41.130Z,5.23
2019-02-20T15:01:46.564Z,5.00
2019-02-20T15:06:51.958Z,5.30
2019-02-20T15:11:57.429Z,5.00
2019-02-20T15:17:02.803Z,5.70
2019-02-20T15:22:08.469Z,5.73
2019-02-20T15:27:13.966Z,5.60
2019-02-20T15:32:19.344Z,5.40
2019-02-20T15:37:24.941Z,5.37
2019-02-20T15:42:30.497Z,5.47
2019-02-20T15:47:35.873Z,5.73
2019-02-20T15:52:41.239Z,5.63
2019-02-20T15:57:46.897Z,5.67
2019-02-20T16:02:52.451Z,5.67
2019-02-20T16:07:57.935Z,5.23
2019-02-20T16:13:03.300Z,5.57
2019-02-20T16:18:09.127Z,5.27
2019-02-20T16:23:14.578Z,6.20
2019-02-20T16:28:20.181Z,6.63
2019-02-20T16:33:25.691Z,7.20
2019-02-20T16:38:31.114Z,6.87
2019-02-20T16:43:36.698Z,7.30
2019-02-20T16:48:43.222Z,7.20
2019-02-20T16:53:48.671Z,7.13
2019-02-20T16:58:54.099Z,7.07
2019-02-20T17:04:01.639Z,7.70
2019-02-20T17:09:12.510Z,7.40
2019-02-20T17:14:22.863Z,7.33
2019-02-20T17:19:32.556Z,8.17
2019-02-20T17:24:43.450Z,7.20
2019-02-20T17:29:53.724Z,7.23
2019-02-20T17:35:00.638Z,7.57
2019-02-20T17:40:08.594Z,7.40
2019-02-20T17:45:14.490Z,7.17
2019-02-20T17:50:20.388Z,7.50
2019-02-20T17:55:25.905Z,7.83
2019-02-20T18:00:32.103Z,8.03
2019-02-20T18:05:37.487Z,9.57
2019-02-20T18:10:43.000Z,8.40
2019-02-20T18:15:48.629Z,7.50
2019-02-20T18:20:54.221Z,8.07
2019-02-20T18:25:59.857Z,8.67
2019-02-20T18:31:05.507Z,9.77
2019-02-20T18:36:11.738Z,9.57
2019-02-20T18:41:17.257Z,10.60
2019-02-20T18:46:22.827Z,9.83
2019-02-20T18:51:28.245Z,10.50
2019-02-20T18:56:34.223Z,9.43
2019-02-20T19:01:39.882Z,9.67
2019-02-20T19:06:45.373Z,9.03
2019-02-20T19:12:46.785Z,9.03
2019-02-20T19:18:44.666Z,9.40
2019-02-20T19:25:26.550Z,10.67
2019-02-20T19:31:35.812Z,9.10
2019-02-20T19:37:28.855Z,10.57
2019-02-20T19:43:30.817Z,10.50
2019-02-20T19:49:22.531Z,11.97
2019-02-20T19:54:50.326Z,9.30
2019-02-20T20:01:04.601Z,12.27
2019-02-20T20:06:41.648Z,11.53
2019-02-20T20:12:39.632Z,11.10
2019-02-20T20:18:52.439Z,11.63
2019-02-20T20:24:39.307Z,9.63
2019-02-20T20:30:29.189Z,11.60
2019-02-20T20:36:15.610Z,11.53
2019-02-20T20:42:39.647Z,11.63
2019-02-20T20:48:14.692Z,10.70
2019-02-20T20:54:21.944Z,11.47
2019-02-20T21:00:20.707Z,10.90
2019-02-20T21:06:18.324Z,9.87
2019-02-20T21:12:21.952Z,10.00
2019-02-20T21:18:48.305Z,10.77
2019-02-20T21:25:33.097Z,11.70
2019-02-20T21:31:13.287Z,11.73
2019-02-20T21:36:57.898Z,10.67
2019-02-20T21:42:56.414Z,11.10
2019-02-20T21:48:52.113Z,9.83
2019-02-20T21:54:37.271Z,10.07
2019-02-20T22:00:35.864Z,9.63
2019-02-20T22:06:33.438Z,9.67
2019-02-20T22:12:15.284Z,9.53
2019-02-20T22:18:14.842Z,9.10
2019-02-20T22:24:05.900Z,9.57
2019-02-20T22:29:52.379Z,10.60
2019-02-20T22:35:55.773Z,10.40
2019-02-20T22:42:22.466Z,9.57
2019-02-20T22:48:31.657Z,9.73
2019-02-20T22:54:05.521Z,10.63
2019-02-20T23:00:06.578Z,10.37
2019-02-20T23:06:14.967Z,11.50
2019-02-20T23:12:02.435Z,11.07
2019-02-20T23:17:07.964Z,10.77
2019-02-20T23:22:13.531Z,11.00
2019-02-20T23:27:19.070Z,11.23
2019-02-20T23:32:24.535Z,10.83
2019-02-20T23:37:30.084Z,10.27
2019-02-20T23:42:35.583Z,10.80
2019-02-20T23:47:41.025Z,10.57
2019-02-20T23:52:46.557Z,10.47
2019-02-20T23:57:52.002Z,10.97
